sensor_id;sensor_type;location;lat;lon;timestamp;P1;durP1;ratioP1;P2;durP2;ratioP2
55003;SDS011;40900;52.710;6.438;2022-08-27T00:02:00;7.03;;;3.03;;
55003;SDS011;40900;52.710;6.438;2022-08-27T00:04:26;10.05;;;3.03;;
55003;SDS011;40900;52.710;6.438;2022-08-27T00:06:52;7.53;;;3.50;;
55003;SDS011;40900;52.710;6.438;2022-08-27T00:09:18;8.40;;;3.33;;
55003;SDS011;40900;52.710;6.438;2022-08-27T00:11:43;8.48;;;3.15;;
55003;SDS011;40900;52.710;6.438;2022-08-27T00:14:10;9.05;;;3.33;;
55003;SDS011;40900;52.710;6.438;2022-08-27T00:16:37;8.32;;;3.08;;
55003;SDS011;40900;52.710;6.438;2022-08-27T00:19:03;7.70;;;3.40;;
55003;SDS011;40900;52.710;6.438;2022-08-27T00:21:29;7.05;;;3.60;;
55003;SDS011;40900;52.710;6.438;2022-08-27T00:23:57;11.10;;;3.95;;
55003;SDS011;40900;52.710;6.438;2022-08-27T00:26:23;7.72;;;3.33;;
55003;SDS011;40900;52.710;6.438;2022-08-27T00:28:49;9.15;;;3.42;;
55003;SDS011;40900;52.710;6.438;2022-08-27T00:31:16;9.95;;;3.40;;
55003;SDS011;40900;52.710;6.438;2022-08-27T00:33:42;7.78;;;3.35;;
55003;SDS011;40900;52.710;6.438;2022-08-27T00:36:08;8.50;;;3.45;;
55003;SDS011;40900;52.710;6.438;2022-08-27T00:38:35;8.80;;;3.72;;
55003;SDS011;40900;52.710;6.438;2022-08-27T00:41:03;9.60;;;3.75;;
55003;SDS011;40900;52.710;6.438;2022-08-27T00:43:41;8.30;;;3.03;;
55003;SDS011;40900;52.710;6.438;2022-08-27T00:46:30;10.38;;;3.45;;
55003;SDS011;40900;52.710;6.438;2022-08-27T00:49:09;10.00;;;4.07;;
55003;SDS011;40900;52.710;6.438;2022-08-27T00:51:49;10.02;;;3.78;;
55003;SDS011;40900;52.710;6.438;2022-08-27T00:54:19;6.28;;;3.50;;
55003;SDS011;40900;52.710;6.438;2022-08-27T00:56:46;13.85;;;3.90;;
55003;SDS011;40900;52.710;6.438;2022-08-27T00:59:13;9.65;;;3.90;;
55003;SDS011;40900;52.710;6.438;2022-08-27T01:01:42;9.02;;;3.90;;
55003;SDS011;40900;52.710;6.438;2022-08-27T01:04:27;9.88;;;3.95;;
55003;SDS011;40900;52.710;6.438;2022-08-27T01:06:54;10.52;;;3.83;;
55003;SDS011;40900;52.710;6.438;2022-08-27T01:09:21;13.98;;;4.18;;
55003;SDS011;40900;52.710;6.438;2022-08-27T01:11:47;7.25;;;3.70;;
55003;SDS011;40900;52.710;6.438;2022-08-27T01:14:13;11.60;;;4.20;;
55003;SDS011;40900;52.710;6.438;2022-08-27T01:16:41;7.75;;;3.72;;
55003;SDS011;40900;52.710;6.438;2022-08-27T01:19:17;8.48;;;3.67;;
55003;SDS011;40900;52.710;6.438;2022-08-27T01:21:53;10.00;;;4.25;;
55003;SDS011;40900;52.710;6.438;2022-08-27T01:24:37;6.88;;;4.13;;
55003;SDS011;40900;52.710;6.438;2022-08-27T01:27:07;8.50;;;3.80;;
55003;SDS011;40900;52.710;6.438;2022-08-27T01:29:36;9.93;;;4.57;;
55003;SDS011;40900;52.710;6.438;2022-08-27T01:32:07;8.55;;;4.30;;
55003;SDS011;40900;52.710;6.438;2022-08-27T01:34:53;8.23;;;3.92;;
55003;SDS011;40900;52.710;6.438;2022-08-27T01:37:19;9.57;;;4.60;;
55003;SDS011;40900;52.710;6.438;2022-08-27T01:39:46;9.80;;;3.97;;
55003;SDS011;40900;52.710;6.438;2022-08-27T01:42:54;9.63;;;4.22;;
55003;SDS011;40900;52.710;6.438;2022-08-27T01:45:05;10.40;;;3.88;;
55003;SDS011;40900;52.710;6.438;2022-08-27T01:47:37;13.07;;;4.25;;
55003;SDS011;40900;52.710;6.438;2022-08-27T01:50:08;7.68;;;4.18;;
55003;SDS011;40900;52.710;6.438;2022-08-27T01:52:37;8.60;;;4.90;;
55003;SDS011;40900;52.710;6.438;2022-08-27T01:55:04;10.75;;;4.53;;
55003;SDS011;40900;52.710;6.438;2022-08-27T01:57:32;10.20;;;4.95;;
55003;SDS011;40900;52.710;6.438;2022-08-27T01:59:59;7.40;;;4.20;;
55003;SDS011;40900;52.710;6.438;2022-08-27T02:02:26;8.63;;;4.15;;
55003;SDS011;40900;52.710;6.438;2022-08-27T02:04:52;10.32;;;4.68;;
55003;SDS011;40900;52.710;6.438;2022-08-27T02:07:18;9.15;;;4.57;;
55003;SDS011;40900;52.710;6.438;2022-08-27T02:09:44;7.28;;;4.28;;
55003;SDS011;40900;52.710;6.438;2022-08-27T02:12:09;10.02;;;4.97;;
55003;SDS011;40900;52.710;6.438;2022-08-27T02:14:35;11.07;;;5.45;;
55003;SDS011;40900;52.710;6.438;2022-08-27T02:17:01;9.40;;;4.90;;
55003;SDS011;40900;52.710;6.438;2022-08-27T02:19:26;10.15;;;4.80;;
55003;SDS011;40900;52.710;6.438;2022-08-27T02:21:52;10.95;;;5.07;;
55003;SDS011;40900;52.710;6.438;2022-08-27T02:24:18;9.00;;;4.78;;
55003;SDS011;40900;52.710;6.438;2022-08-27T02:26:44;10.45;;;4.63;;
55003;SDS011;40900;52.710;6.438;2022-08-27T02:29:09;8.35;;;4.88;;
55003;SDS011;40900;52.710;6.438;2022-08-27T02:31:36;10.55;;;4.80;;
55003;SDS011;40900;52.710;6.438;2022-08-27T02:34:02;8.82;;;4.82;;
55003;SDS011;40900;52.710;6.438;2022-08-27T02:36:28;7.25;;;4.35;;
55003;SDS011;40900;52.710;6.438;2022-08-27T02:38:54;9.65;;;4.90;;
55003;SDS011;40900;52.710;6.438;2022-08-27T02:41:20;10.25;;;5.00;;
55003;SDS011;40900;52.710;6.438;2022-08-27T02:43:46;11.98;;;5.05;;
55003;SDS011;40900;52.710;6.438;2022-08-27T02:46:12;9.05;;;5.15;;
55003;SDS011;40900;52.710;6.438;2022-08-27T02:48:39;8.98;;;5.20;;
55003;SDS011;40900;52.710;6.438;2022-08-27T02:51:05;13.23;;;5.90;;
55003;SDS011;40900;52.710;6.438;2022-08-27T02:53:31;8.80;;;5.20;;
55003;SDS011;40900;52.710;6.438;2022-08-27T02:55:59;7.65;;;4.90;;
55003;SDS011;40900;52.710;6.438;2022-08-27T02:58:24;8.95;;;5.05;;
55003;SDS011;40900;52.710;6.438;2022-08-27T03:00:50;9.40;;;5.05;;
55003;SDS011;40900;52.710;6.438;2022-08-27T03:03:16;12.52;;;5.32;;
55003;SDS011;40900;52.710;6.438;2022-08-27T03:05:42;10.65;;;5.18;;
55003;SDS011;40900;52.710;6.438;2022-08-27T03:08:08;8.07;;;5.07;;
55003;SDS011;40900;52.710;6.438;2022-08-27T03:10:33;10.82;;;5.07;;
55003;SDS011;40900;52.710;6.438;2022-08-27T03:12:59;11.35;;;4.95;;
55003;SDS011;40900;52.710;6.438;2022-08-27T03:15:25;9.38;;;4.97;;
55003;SDS011;40900;52.710;6.438;2022-08-27T03:17:51;12.63;;;5.10;;
55003;SDS011;40900;52.710;6.438;2022-08-27T03:20:37;10.00;;;5.23;;
55003;SDS011;40900;52.710;6.438;2022-08-27T03:23:05;8.02;;;5.13;;
55003;SDS011;40900;52.710;6.438;2022-08-27T03:25:31;8.55;;;4.75;;
55003;SDS011;40900;52.710;6.438;2022-08-27T03:27:57;11.73;;;5.07;;
55003;SDS011;40900;52.710;6.438;2022-08-27T03:30:24;7.97;;;4.90;;
55003;SDS011;40900;52.710;6.438;2022-08-27T03:32:50;11.57;;;4.90;;
55003;SDS011;40900;52.710;6.438;2022-08-27T03:35:16;7.45;;;4.57;;
55003;SDS011;40900;52.710;6.438;2022-08-27T03:37:44;9.18;;;4.65;;
55003;SDS011;40900;52.710;6.438;2022-08-27T03:40:11;10.48;;;5.30;;
55003;SDS011;40900;52.710;6.438;2022-08-27T03:42:37;7.63;;;4.80;;
55003;SDS011;40900;52.710;6.438;2022-08-27T03:45:04;9.10;;;4.72;;
55003;SDS011;40900;52.710;6.438;2022-08-27T03:47:32;10.15;;;5.35;;
55003;SDS011;40900;52.710;6.438;2022-08-27T03:49:58;9.93;;;5.03;;
55003;SDS011;40900;52.710;6.438;2022-08-27T03:52:25;6.30;;;4.18;;
55003;SDS011;40900;52.710;6.438;2022-08-27T03:54:51;10.32;;;4.63;;
55003;SDS011;40900;52.710;6.438;2022-08-27T03:57:17;10.20;;;5.75;;
55003;SDS011;40900;52.710;6.438;2022-08-27T03:59:42;10.45;;;4.70;;
55003;SDS011;40900;52.710;6.438;2022-08-27T04:02:08;11.63;;;4.40;;
55003;SDS011;40900;52.710;6.438;2022-08-27T04:04:34;10.20;;;4.22;;
55003;SDS011;40900;52.710;6.438;2022-08-27T04:07:00;6.70;;;4.25;;
55003;SDS011;40900;52.710;6.438;2022-08-27T04:09:26;8.45;;;4.38;;
55003;SDS011;40900;52.710;6.438;2022-08-27T04:11:52;10.52;;;4.85;;
55003;SDS011;40900;52.710;6.438;2022-08-27T04:14:18;9.05;;;4.25;;
55003;SDS011;40900;52.710;6.438;2022-08-27T04:16:44;9.05;;;4.00;;
55003;SDS011;40900;52.710;6.438;2022-08-27T04:19:09;7.38;;;4.38;;
55003;SDS011;40900;52.710;6.438;2022-08-27T04:21:37;8.65;;;4.50;;
55003;SDS011;40900;52.710;6.438;2022-08-27T04:24:02;8.88;;;4.80;;
55003;SDS011;40900;52.710;6.438;2022-08-27T04:26:28;7.97;;;4.65;;
55003;SDS011;40900;52.710;6.438;2022-08-27T04:28:55;5.97;;;3.80;;
55003;SDS011;40900;52.710;6.438;2022-08-27T04:31:22;6.20;;;4.35;;
55003;SDS011;40900;52.710;6.438;2022-08-27T04:33:48;8.68;;;4.65;;
55003;SDS011;40900;52.710;6.438;2022-08-27T04:36:13;10.77;;;4.75;;
55003;SDS011;40900;52.710;6.438;2022-08-27T04:38:41;10.48;;;4.70;;
55003;SDS011;40900;52.710;6.438;2022-08-27T04:41:08;8.48;;;4.10;;
55003;SDS011;40900;52.710;6.438;2022-08-27T04:43:55;11.45;;;4.70;;
55003;SDS011;40900;52.710;6.438;2022-08-27T04:46:22;6.45;;;4.18;;
55003;SDS011;40900;52.710;6.438;2022-08-27T04:48:50;9.27;;;4.78;;
55003;SDS011;40900;52.710;6.438;2022-08-27T04:51:17;8.05;;;4.57;;
55003;SDS011;40900;52.710;6.438;2022-08-27T04:53:45;10.02;;;4.60;;
55003;SDS011;40900;52.710;6.438;2022-08-27T04:56:12;7.13;;;4.47;;
55003;SDS011;40900;52.710;6.438;2022-08-27T04:58:39;7.70;;;4.88;;
55003;SDS011;40900;52.710;6.438;2022-08-27T05:01:05;11.85;;;4.93;;
55003;SDS011;40900;52.710;6.438;2022-08-27T05:03:31;7.68;;;4.68;;
55003;SDS011;40900;52.710;6.438;2022-08-27T05:06:02;6.30;;;4.30;;
55003;SDS011;40900;52.710;6.438;2022-08-27T05:08:29;8.40;;;4.55;;
55003;SDS011;40900;52.710;6.438;2022-08-27T05:10:55;7.95;;;4.75;;
55003;SDS011;40900;52.710;6.438;2022-08-27T05:13:21;11.02;;;4.75;;
55003;SDS011;40900;52.710;6.438;2022-08-27T05:15:56;9.02;;;4.57;;
55003;SDS011;40900;52.710;6.438;2022-08-27T05:18:23;9.15;;;4.43;;
55003;SDS011;40900;52.710;6.438;2022-08-27T05:20:49;10.05;;;4.95;;
55003;SDS011;40900;52.710;6.438;2022-08-27T05:23:16;10.65;;;4.07;;
55003;SDS011;40900;52.710;6.438;2022-08-27T05:25:44;9.55;;;4.38;;
55003;SDS011;40900;52.710;6.438;2022-08-27T05:28:11;8.98;;;4.38;;
55003;SDS011;40900;52.710;6.438;2022-08-27T05:30:39;6.80;;;4.07;;
55003;SDS011;40900;52.710;6.438;2022-08-27T05:33:07;11.45;;;4.85;;
55003;SDS011;40900;52.710;6.438;2022-08-27T05:35:41;9.93;;;5.20;;
55003;SDS011;40900;52.710;6.438;2022-08-27T05:38:11;7.53;;;5.13;;
55003;SDS011;40900;52.710;6.438;2022-08-27T05:40:37;7.35;;;4.50;;
55003;SDS011;40900;52.710;6.438;2022-08-27T05:43:04;8.20;;;5.03;;
55003;SDS011;40900;52.710;6.438;2022-08-27T05:45:31;5.63;;;3.97;;
55003;SDS011;40900;52.710;6.438;2022-08-27T05:47:58;9.98;;;4.22;;
55003;SDS011;40900;52.710;6.438;2022-08-27T05:50:24;7.78;;;4.72;;
55003;SDS011;40900;52.710;6.438;2022-08-27T05:52:50;11.70;;;4.32;;
55003;SDS011;40900;52.710;6.438;2022-08-27T05:55:17;12.07;;;4.30;;
55003;SDS011;40900;52.710;6.438;2022-08-27T05:57:42;9.48;;;4.00;;
55003;SDS011;40900;52.710;6.438;2022-08-27T06:00:08;7.55;;;3.92;;
55003;SDS011;40900;52.710;6.438;2022-08-27T06:02:52;6.97;;;3.90;;
55003;SDS011;40900;52.710;6.438;2022-08-27T06:05:18;8.38;;;4.20;;
55003;SDS011;40900;52.710;6.438;2022-08-27T06:07:44;8.23;;;3.83;;
55003;SDS011;40900;52.710;6.438;2022-08-27T06:10:10;6.88;;;3.80;;
55003;SDS011;40900;52.710;6.438;2022-08-27T06:12:36;6.80;;;3.88;;
55003;SDS011;40900;52.710;6.438;2022-08-27T06:15:02;9.27;;;4.03;;
55003;SDS011;40900;52.710;6.438;2022-08-27T06:17:29;9.70;;;4.40;;
55003;SDS011;40900;52.710;6.438;2022-08-27T06:19:55;11.23;;;3.75;;
55003;SDS011;40900;52.710;6.438;2022-08-27T06:22:21;6.90;;;3.83;;
55003;SDS011;40900;52.710;6.438;2022-08-27T06:24:47;9.60;;;4.32;;
55003;SDS011;40900;52.710;6.438;2022-08-27T06:27:15;7.22;;;3.63;;
55003;SDS011;40900;52.710;6.438;2022-08-27T06:29:43;10.48;;;3.58;;
55003;SDS011;40900;52.710;6.438;2022-08-27T06:32:09;8.05;;;4.00;;
55003;SDS011;40900;52.710;6.438;2022-08-27T06:34:36;8.52;;;3.28;;
55003;SDS011;40900;52.710;6.438;2022-08-27T06:37:02;8.85;;;3.72;;
55003;SDS011;40900;52.710;6.438;2022-08-27T06:39:28;6.97;;;3.47;;
55003;SDS011;40900;52.710;6.438;2022-08-27T06:41:55;10.57;;;3.30;;
55003;SDS011;40900;52.710;6.438;2022-08-27T06:44:21;11.30;;;3.20;;
55003;SDS011;40900;52.710;6.438;2022-08-27T06:46:48;4.80;;;2.92;;
55003;SDS011;40900;52.710;6.438;2022-08-27T06:49:15;9.35;;;2.88;;
55003;SDS011;40900;52.710;6.438;2022-08-27T06:51:43;10.82;;;3.58;;
55003;SDS011;40900;52.710;6.438;2022-08-27T06:54:10;6.90;;;3.45;;
55003;SDS011;40900;52.710;6.438;2022-08-27T06:56:38;10.40;;;3.47;;
55003;SDS011;40900;52.710;6.438;2022-08-27T06:59:06;8.85;;;3.00;;
55003;SDS011;40900;52.710;6.438;2022-08-27T07:01:36;5.28;;;2.90;;
55003;SDS011;40900;52.710;6.438;2022-08-27T07:04:09;9.00;;;2.80;;
55003;SDS011;40900;52.710;6.438;2022-08-27T07:06:37;5.93;;;2.80;;
55003;SDS011;40900;52.710;6.438;2022-08-27T07:09:04;9.02;;;2.65;;
55003;SDS011;40900;52.710;6.438;2022-08-27T07:11:30;8.25;;;2.90;;
55003;SDS011;40900;52.710;6.438;2022-08-27T07:13:56;6.55;;;2.95;;
55003;SDS011;40900;52.710;6.438;2022-08-27T07:16:23;9.15;;;2.50;;
55003;SDS011;40900;52.710;6.438;2022-08-27T07:18:51;13.45;;;2.85;;
55003;SDS011;40900;52.710;6.438;2022-08-27T07:21:18;5.30;;;2.50;;
55003;SDS011;40900;52.710;6.438;2022-08-27T07:23:45;7.78;;;2.60;;
55003;SDS011;40900;52.710;6.438;2022-08-27T07:26:12;6.00;;;2.47;;
55003;SDS011;40900;52.710;6.438;2022-08-27T07:28:40;8.77;;;2.15;;
55003;SDS011;40900;52.710;6.438;2022-08-27T07:31:08;6.18;;;2.00;;
55003;SDS011;40900;52.710;6.438;2022-08-27T07:33:35;9.73;;;2.35;;
55003;SDS011;40900;52.710;6.438;2022-08-27T07:36:05;11.25;;;2.47;;
55003;SDS011;40900;52.710;6.438;2022-08-27T07:38:32;5.95;;;2.00;;
55003;SDS011;40900;52.710;6.438;2022-08-27T07:40:58;5.82;;;2.17;;
55003;SDS011;40900;52.710;6.438;2022-08-27T07:43:24;7.68;;;2.20;;
55003;SDS011;40900;52.710;6.438;2022-08-27T07:46:08;7.40;;;2.07;;
55003;SDS011;40900;52.710;6.438;2022-08-27T07:48:34;7.00;;;2.33;;
55003;SDS011;40900;52.710;6.438;2022-08-27T07:51:01;7.85;;;2.20;;
55003;SDS011;40900;52.710;6.438;2022-08-27T07:53:30;5.80;;;2.10;;
55003;SDS011;40900;52.710;6.438;2022-08-27T07:56:04;6.15;;;1.85;;
55003;SDS011;40900;52.710;6.438;2022-08-27T07:58:31;10.83;;;2.20;;
55003;SDS011;40900;52.710;6.438;2022-08-27T08:00:57;6.22;;;1.77;;
55003;SDS011;40900;52.710;6.438;2022-08-27T08:03:23;6.13;;;1.77;;
55003;SDS011;40900;52.710;6.438;2022-08-27T08:05:49;7.10;;;1.88;;
55003;SDS011;40900;52.710;6.438;2022-08-27T08:08:17;6.57;;;1.88;;
55003;SDS011;40900;52.710;6.438;2022-08-27T08:10:44;5.57;;;1.80;;
55003;SDS011;40900;52.710;6.438;2022-08-27T08:13:12;7.40;;;1.80;;
55003;SDS011;40900;52.710;6.438;2022-08-27T08:15:38;5.22;;;1.80;;
55003;SDS011;40900;52.710;6.438;2022-08-27T08:18:04;6.00;;;1.88;;
55003;SDS011;40900;52.710;6.438;2022-08-27T08:20:29;6.88;;;1.77;;
55003;SDS011;40900;52.710;6.438;2022-08-27T08:22:55;4.70;;;1.80;;
55003;SDS011;40900;52.710;6.438;2022-08-27T08:25:21;5.65;;;1.92;;
55003;SDS011;40900;52.710;6.438;2022-08-27T08:27:47;6.35;;;1.67;;
55003;SDS011;40900;52.710;6.438;2022-08-27T08:30:13;5.93;;;1.95;;
55003;SDS011;40900;52.710;6.438;2022-08-27T08:32:39;5.75;;;1.95;;
55003;SDS011;40900;52.710;6.438;2022-08-27T08:35:05;5.63;;;1.70;;
55003;SDS011;40900;52.710;6.438;2022-08-27T08:37:32;6.85;;;1.90;;
55003;SDS011;40900;52.710;6.438;2022-08-27T08:39:57;9.07;;;2.38;;
55003;SDS011;40900;52.710;6.438;2022-08-27T08:42:28;14.02;;;3.10;;
55003;SDS011;40900;52.710;6.438;2022-08-27T08:45:04;9.90;;;2.15;;
55003;SDS011;40900;52.710;6.438;2022-08-27T08:47:35;9.75;;;2.00;;
55003;SDS011;40900;52.710;6.438;2022-08-27T08:50:18;7.07;;;2.03;;
55003;SDS011;40900;52.710;6.438;2022-08-27T08:52:55;7.78;;;2.15;;
55003;SDS011;40900;52.710;6.438;2022-08-27T08:55:30;7.75;;;2.20;;
55003;SDS011;40900;52.710;6.438;2022-08-27T09:01:06;11.07;;;2.05;;
55003;SDS011;40900;52.710;6.438;2022-08-27T09:03:34;8.75;;;2.38;;
55003;SDS011;40900;52.710;6.438;2022-08-27T09:06:06;7.43;;;1.90;;
55003;SDS011;40900;52.710;6.438;2022-08-27T09:08:38;5.10;;;1.77;;
55003;SDS011;40900;52.710;6.438;2022-08-27T09:14:00;6.63;;;1.80;;
55003;SDS011;40900;52.710;6.438;2022-08-27T09:16:28;7.85;;;2.17;;
55003;SDS011;40900;52.710;6.438;2022-08-27T09:18:56;4.63;;;1.73;;
55003;SDS011;40900;52.710;6.438;2022-08-27T09:21:30;5.63;;;1.90;;
55003;SDS011;40900;52.710;6.438;2022-08-27T09:26:24;6.65;;;2.03;;
55003;SDS011;40900;52.710;6.438;2022-08-27T09:28:59;4.40;;;1.70;;
55003;SDS011;40900;52.710;6.438;2022-08-27T09:31:40;5.35;;;1.70;;
55003;SDS011;40900;52.710;6.438;2022-08-27T09:34:11;8.50;;;2.05;;
55003;SDS011;40900;52.710;6.438;2022-08-27T09:36:56;6.55;;;2.00;;
55003;SDS011;40900;52.710;6.438;2022-08-27T09:39:33;6.38;;;1.58;;
55003;SDS011;40900;52.710;6.438;2022-08-27T09:42:35;10.57;;;2.38;;
55003;SDS011;40900;52.710;6.438;2022-08-27T09:45:05;5.20;;;1.70;;
55003;SDS011;40900;52.710;6.438;2022-08-27T09:47:52;9.32;;;2.00;;
55003;SDS011;40900;52.710;6.438;2022-08-27T09:50:47;7.28;;;2.20;;
55003;SDS011;40900;52.710;6.438;2022-08-27T09:55:52;11.57;;;2.03;;
55003;SDS011;40900;52.710;6.438;2022-08-27T09:58:33;8.48;;;1.83;;
55003;SDS011;40900;52.710;6.438;2022-08-27T10:01:16;6.90;;;1.92;;
55003;SDS011;40900;52.710;6.438;2022-08-27T10:03:46;7.68;;;2.22;;
55003;SDS011;40900;52.710;6.438;2022-08-27T10:06:12;8.30;;;2.20;;
55003;SDS011;40900;52.710;6.438;2022-08-27T10:08:45;6.85;;;2.20;;
55003;SDS011;40900;52.710;6.438;2022-08-27T10:11:19;6.75;;;1.85;;
55003;SDS011;40900;52.710;6.438;2022-08-27T10:16:41;9.80;;;1.70;;
55003;SDS011;40900;52.710;6.438;2022-08-27T10:19:22;8.35;;;2.10;;
55003;SDS011;40900;52.710;6.438;2022-08-27T10:30:07;7.13;;;1.88;;
55003;SDS011;40900;52.710;6.438;2022-08-27T10:40:50;8.82;;;1.88;;
55003;SDS011;40900;52.710;6.438;2022-08-27T10:52:01;7.85;;;1.67;;
55003;SDS011;40900;52.710;6.438;2022-08-27T10:54:50;6.15;;;1.88;;
55003;SDS011;40900;52.710;6.438;2022-08-27T11:08:56;5.10;;;1.70;;
55003;SDS011;40900;52.710;6.438;2022-08-27T11:11:45;5.65;;;1.70;;
55003;SDS011;40900;52.710;6.438;2022-08-27T11:14:35;6.95;;;1.80;;
55003;SDS011;40900;52.710;6.438;2022-08-27T11:22:52;6.30;;;1.70;;
55003;SDS011;40900;52.710;6.438;2022-08-27T11:25:46;5.78;;;1.75;;
55003;SDS011;40900;52.710;6.438;2022-08-27T11:28:17;11.75;;;2.47;;
55003;SDS011;40900;52.710;6.438;2022-08-27T11:31:00;7.65;;;1.83;;
55003;SDS011;40900;52.710;6.438;2022-08-27T11:36:29;6.10;;;1.65;;
55003;SDS011;40900;52.710;6.438;2022-08-27T11:42:11;6.55;;;1.60;;
55003;SDS011;40900;52.710;6.438;2022-08-27T11:44:41;6.50;;;1.75;;
55003;SDS011;40900;52.710;6.438;2022-08-27T11:47:13;5.20;;;1.60;;
55003;SDS011;40900;52.710;6.438;2022-08-27T11:49:47;6.68;;;2.03;;
55003;SDS011;40900;52.710;6.438;2022-08-27T11:52:34;10.40;;;2.17;;
55003;SDS011;40900;52.710;6.438;2022-08-27T11:57:43;7.30;;;3.03;;
55003;SDS011;40900;52.710;6.438;2022-08-27T12:03:05;7.30;;;2.08;;
55003;SDS011;40900;52.710;6.438;2022-08-27T12:13:38;9.77;;;1.80;;
55003;SDS011;40900;52.710;6.438;2022-08-27T12:16:12;5.88;;;1.60;;
55003;SDS011;40900;52.710;6.438;2022-08-27T12:32:38;7.75;;;1.80;;
55003;SDS011;40900;52.710;6.438;2022-08-27T12:37:37;7.53;;;1.50;;
55003;SDS011;40900;52.710;6.438;2022-08-27T12:43:11;5.50;;;1.77;;
55003;SDS011;40900;52.710;6.438;2022-08-27T12:45:50;5.75;;;1.90;;
55003;SDS011;40900;52.710;6.438;2022-08-27T12:48:17;6.88;;;1.65;;
55003;SDS011;40900;52.710;6.438;2022-08-27T12:51:02;6.18;;;1.50;;
55003;SDS011;40900;52.710;6.438;2022-08-27T12:53:52;5.22;;;1.60;;
55003;SDS011;40900;52.710;6.438;2022-08-27T13:02:06;6.28;;;1.95;;
55003;SDS011;40900;52.710;6.438;2022-08-27T13:04:51;7.95;;;1.88;;
55003;SDS011;40900;52.710;6.438;2022-08-27T13:07:27;5.25;;;1.55;;
55003;SDS011;40900;52.710;6.438;2022-08-27T13:09:54;7.40;;;1.70;;
55003;SDS011;40900;52.710;6.438;2022-08-27T13:12:22;6.50;;;1.90;;
55003;SDS011;40900;52.710;6.438;2022-08-27T13:14:48;4.28;;;1.60;;
55003;SDS011;40900;52.710;6.438;2022-08-27T13:17:20;8.07;;;1.88;;
55003;SDS011;40900;52.710;6.438;2022-08-27T13:19:48;5.50;;;1.52;;
55003;SDS011;40900;52.710;6.438;2022-08-27T13:22:29;8.55;;;1.75;;
55003;SDS011;40900;52.710;6.438;2022-08-27T13:25:00;8.60;;;1.90;;
55003;SDS011;40900;52.710;6.438;2022-08-27T13:27:30;6.15;;;1.55;;
55003;SDS011;40900;52.710;6.438;2022-08-27T13:30:19;5.22;;;1.50;;
55003;SDS011;40900;52.710;6.438;2022-08-27T13:32:43;10.82;;;1.60;;
55003;SDS011;40900;52.710;6.438;2022-08-27T13:35:09;7.00;;;2.05;;
55003;SDS011;40900;52.710;6.438;2022-08-27T13:37:46;8.35;;;1.73;;
55003;SDS011;40900;52.710;6.438;2022-08-27T13:40:26;5.43;;;1.52;;
55003;SDS011;40900;52.710;6.438;2022-08-27T13:43:05;4.20;;;1.45;;
55003;SDS011;40900;52.710;6.438;2022-08-27T13:45:33;8.50;;;1.65;;
55003;SDS011;40900;52.710;6.438;2022-08-27T13:48:01;5.47;;;1.50;;
55003;SDS011;40900;52.710;6.438;2022-08-27T13:50:28;8.13;;;1.80;;
55003;SDS011;40900;52.710;6.438;2022-08-27T13:53:08;6.00;;;1.60;;
55003;SDS011;40900;52.710;6.438;2022-08-27T13:55:54;5.25;;;1.63;;
55003;SDS011;40900;52.710;6.438;2022-08-27T13:58:24;6.22;;;1.75;;
55003;SDS011;40900;52.710;6.438;2022-08-27T14:00:52;5.88;;;1.60;;
55003;SDS011;40900;52.710;6.438;2022-08-27T14:03:33;7.47;;;1.80;;
55003;SDS011;40900;52.710;6.438;2022-08-27T14:06:00;4.70;;;1.52;;
55003;SDS011;40900;52.710;6.438;2022-08-27T14:08:31;6.22;;;1.50;;
55003;SDS011;40900;52.710;6.438;2022-08-27T14:13:41;4.53;;;1.70;;
55003;SDS011;40900;52.710;6.438;2022-08-27T14:16:42;9.48;;;2.00;;
55003;SDS011;40900;52.710;6.438;2022-08-27T14:19:09;6.03;;;1.40;;
55003;SDS011;40900;52.710;6.438;2022-08-27T14:21:39;5.22;;;1.63;;
55003;SDS011;40900;52.710;6.438;2022-08-27T14:24:07;5.13;;;1.63;;
55003;SDS011;40900;52.710;6.438;2022-08-27T14:26:33;5.57;;;1.52;;
55003;SDS011;40900;52.710;6.438;2022-08-27T14:28:59;7.68;;;1.58;;
55003;SDS011;40900;52.710;6.438;2022-08-27T14:31:25;6.10;;;1.67;;
55003;SDS011;40900;52.710;6.438;2022-08-27T14:33:51;8.90;;;1.73;;
55003;SDS011;40900;52.710;6.438;2022-08-27T14:36:18;5.50;;;1.08;;
55003;SDS011;40900;52.710;6.438;2022-08-27T14:38:46;8.73;;;1.45;;
55003;SDS011;40900;52.710;6.438;2022-08-27T14:41:13;6.90;;;1.67;;
55003;SDS011;40900;52.710;6.438;2022-08-27T14:43:39;8.32;;;2.67;;
55003;SDS011;40900;52.710;6.438;2022-08-27T14:46:05;5.00;;;1.48;;
55003;SDS011;40900;52.710;6.438;2022-08-27T14:48:37;5.20;;;1.35;;
55003;SDS011;40900;52.710;6.438;2022-08-27T14:51:08;6.20;;;1.45;;
55003;SDS011;40900;52.710;6.438;2022-08-27T14:53:38;4.28;;;1.30;;
55003;SDS011;40900;52.710;6.438;2022-08-27T14:56:04;5.43;;;1.25;;
55003;SDS011;40900;52.710;6.438;2022-08-27T14:58:30;4.32;;;1.40;;
55003;SDS011;40900;52.710;6.438;2022-08-27T15:00:56;7.50;;;1.35;;
55003;SDS011;40900;52.710;6.438;2022-08-27T15:03:22;5.15;;;1.38;;
55003;SDS011;40900;52.710;6.438;2022-08-27T15:05:51;6.35;;;1.48;;
55003;SDS011;40900;52.710;6.438;2022-08-27T15:08:19;5.35;;;1.38;;
55003;SDS011;40900;52.710;6.438;2022-08-27T15:10:45;4.00;;;1.40;;
55003;SDS011;40900;52.710;6.438;2022-08-27T15:13:11;5.65;;;1.48;;
55003;SDS011;40900;52.710;6.438;2022-08-27T15:15:37;2.63;;;1.00;;
55003;SDS011;40900;52.710;6.438;2022-08-27T15:18:03;7.25;;;1.35;;
55003;SDS011;40900;52.710;6.438;2022-08-27T15:20:29;5.95;;;1.50;;
55003;SDS011;40900;52.710;6.438;2022-08-27T15:22:56;5.38;;;1.48;;
55003;SDS011;40900;52.710;6.438;2022-08-27T15:25:22;5.90;;;1.50;;
55003;SDS011;40900;52.710;6.438;2022-08-27T15:27:48;5.80;;;1.88;;
55003;SDS011;40900;52.710;6.438;2022-08-27T15:30:14;5.88;;;1.63;;
55003;SDS011;40900;52.710;6.438;2022-08-27T15:32:42;5.05;;;1.70;;
55003;SDS011;40900;52.710;6.438;2022-08-27T15:35:12;5.10;;;1.77;;
55003;SDS011;40900;52.710;6.438;2022-08-27T15:37:40;8.93;;;1.52;;
55003;SDS011;40900;52.710;6.438;2022-08-27T15:40:07;8.57;;;1.75;;
55003;SDS011;40900;52.710;6.438;2022-08-27T15:42:34;7.03;;;1.80;;
55003;SDS011;40900;52.710;6.438;2022-08-27T15:45:00;4.45;;;1.80;;
55003;SDS011;40900;52.710;6.438;2022-08-27T15:47:26;7.45;;;2.45;;
55003;SDS011;40900;52.710;6.438;2022-08-27T15:49:52;6.40;;;2.42;;
55003;SDS011;40900;52.710;6.438;2022-08-27T15:52:18;6.18;;;1.77;;
55003;SDS011;40900;52.710;6.438;2022-08-27T15:54:46;5.65;;;1.42;;
55003;SDS011;40900;52.710;6.438;2022-08-27T15:57:14;4.43;;;1.60;;
55003;SDS011;40900;52.710;6.438;2022-08-27T15:59:40;9.30;;;1.60;;
55003;SDS011;40900;52.710;6.438;2022-08-27T16:02:09;4.35;;;1.60;;
55003;SDS011;40900;52.710;6.438;2022-08-27T16:04:38;5.20;;;1.55;;
55003;SDS011;40900;52.710;6.438;2022-08-27T16:07:04;6.45;;;1.67;;
55003;SDS011;40900;52.710;6.438;2022-08-27T16:09:30;5.72;;;2.00;;
55003;SDS011;40900;52.710;6.438;2022-08-27T16:11:56;7.35;;;2.33;;
55003;SDS011;40900;52.710;6.438;2022-08-27T16:14:22;7.57;;;1.73;;
55003;SDS011;40900;52.710;6.438;2022-08-27T16:16:48;6.22;;;2.10;;
55003;SDS011;40900;52.710;6.438;2022-08-27T16:19:14;8.43;;;1.88;;
55003;SDS011;40900;52.710;6.438;2022-08-27T16:21:43;6.47;;;1.52;;
55003;SDS011;40900;52.710;6.438;2022-08-27T16:24:09;6.10;;;1.70;;
55003;SDS011;40900;52.710;6.438;2022-08-27T16:26:35;5.82;;;1.80;;
55003;SDS011;40900;52.710;6.438;2022-08-27T16:29:02;5.75;;;1.90;;
55003;SDS011;40900;52.710;6.438;2022-08-27T16:31:29;9.73;;;1.90;;
55003;SDS011;40900;52.710;6.438;2022-08-27T16:33:56;10.63;;;2.00;;
55003;SDS011;40900;52.710;6.438;2022-08-27T16:36:23;5.40;;;1.70;;
55003;SDS011;40900;52.710;6.438;2022-08-27T16:38:49;6.78;;;1.83;;
55003;SDS011;40900;52.710;6.438;2022-08-27T16:41:14;8.00;;;2.35;;
55003;SDS011;40900;52.710;6.438;2022-08-27T16:43:40;8.57;;;1.90;;